Weather at Finley Airport

Public forecast

Using degrees Celsius for public forecast. Weather courtesy of forecast.io.

Closest aviation weather report (METAR) to Finley Airport

Closest report is Wangaratta Airport, 58.1 nm (107.6 km) SE. Retrieved 2020/10/26 09:00 UTC (59 minutes ago):

YWGT 260900Z AUTO 15008KT 9999 // SCT057 SCT071 BKN090 14/07 Q1020

Closest aviation forecast (TAF) to Finley Airport

Forecast is more than 6 hours old.

Closest forecast is Wangaratta Airport, 58.1 nm (107.6 km) SE. Retrieved 2020-10-26 02:33 UTC (7 hours ago):

TAF TAF YWGT 260111Z 2602/2614 13008KT CAVOK